sensor_id;sensor_type;location;lat;lon;timestamp;pressure;altitude;pressure_sealevel;temperature;humidity
26635;BME280;14490;54.208;37.686;2023-04-15T00:00:37;100047.47;;;2.76;37.29
26635;BME280;14490;54.208;37.686;2023-04-15T00:03:04;100025.38;;;2.54;37.53
26635;BME280;14490;54.208;37.686;2023-04-15T00:05:32;100044.25;;;2.68;37.59
26635;BME280;14490;54.208;37.686;2023-04-15T00:08:00;100047.16;;;2.62;37.71
26635;BME280;14490;54.208;37.686;2023-04-15T00:10:28;100058.34;;;2.70;37.43
26635;BME280;14490;54.208;37.686;2023-04-15T00:12:56;100063.69;;;2.70;37.63
26635;BME280;14490;54.208;37.686;2023-04-15T00:15:24;100063.94;;;2.64;37.76
26635;BME280;14490;54.208;37.686;2023-04-15T00:17:51;100059.22;;;2.49;37.80
26635;BME280;14490;54.208;37.686;2023-04-15T00:20:19;100066.13;;;2.53;38.17
26635;BME280;14490;54.208;37.686;2023-04-15T00:22:47;100064.53;;;2.49;38.01
26635;BME280;14490;54.208;37.686;2023-04-15T00:25:14;100071.44;;;2.53;37.87
26635;BME280;14490;54.208;37.686;2023-04-15T00:27:42;100081.81;;;2.59;37.89
26635;BME280;14490;54.208;37.686;2023-04-15T00:30:11;100076.75;;;2.53;37.96
26635;BME280;14490;54.208;37.686;2023-04-15T00:32:40;100066.38;;;2.47;37.98
26635;BME280;14490;54.208;37.686;2023-04-15T00:35:08;100093.41;;;2.58;37.91
26635;BME280;14490;54.208;37.686;2023-04-15T00:37:35;100098.94;;;2.52;37.96
26635;BME280;14490;54.208;37.686;2023-04-15T00:40:03;100069.59;;;2.33;38.09
26635;BME280;14490;54.208;37.686;2023-04-15T00:42:34;100086.28;;;2.37;38.08
26635;BME280;14490;54.208;37.686;2023-04-15T00:45:03;100094.16;;;2.38;38.17
26635;BME280;14490;54.208;37.686;2023-04-15T00:47:33;100108.34;;;2.37;38.33
26635;BME280;14490;54.208;37.686;2023-04-15T00:50:01;100103.50;;;2.25;38.24
26635;BME280;14490;54.208;37.686;2023-04-15T00:52:29;100072.47;;;2.04;38.26
26635;BME280;14490;54.208;37.686;2023-04-15T00:54:57;100108.00;;;2.25;38.29
26635;BME280;14490;54.208;37.686;2023-04-15T00:57:25;100110.03;;;2.16;38.47
26635;BME280;14490;54.208;37.686;2023-04-15T00:59:52;100124.38;;;2.12;38.32
26635;BME280;14490;54.208;37.686;2023-04-15T01:02:22;100145.28;;;2.22;38.47
26635;BME280;14490;54.208;37.686;2023-04-15T01:04:51;100119.88;;;2.14;38.46
26635;BME280;14490;54.208;37.686;2023-04-15T01:07:19;100140.56;;;2.28;38.21
26635;BME280;14490;54.208;37.686;2023-04-15T01:09:46;100127.50;;;2.24;38.25
26635;BME280;14490;54.208;37.686;2023-04-15T01:12:14;100150.13;;;2.34;38.35
26635;BME280;14490;54.208;37.686;2023-04-15T01:14:43;100146.72;;;2.30;38.56
26635;BME280;14490;54.208;37.686;2023-04-15T01:17:10;100123.66;;;2.07;38.60
26635;BME280;14490;54.208;37.686;2023-04-15T01:19:38;100138.69;;;2.08;38.52
26635;BME280;14490;54.208;37.686;2023-04-15T01:22:07;100155.81;;;2.23;38.66
26635;BME280;14490;54.208;37.686;2023-04-15T01:24:36;100149.06;;;2.14;38.63
26635;BME280;14490;54.208;37.686;2023-04-15T01:27:05;100164.88;;;2.17;38.74
26635;BME280;14490;54.208;37.686;2023-04-15T01:29:35;100161.56;;;2.12;38.77
26635;BME280;14490;54.208;37.686;2023-04-15T01:32:03;100168.56;;;2.13;38.80
26635;BME280;14490;54.208;37.686;2023-04-15T01:34:31;100163.25;;;2.13;38.73
26635;BME280;14490;54.208;37.686;2023-04-15T01:36:59;100154.94;;;1.99;38.76
26635;BME280;14490;54.208;37.686;2023-04-15T01:39:26;100167.69;;;2.13;38.70
26635;BME280;14490;54.208;37.686;2023-04-15T01:41:56;100169.50;;;2.12;38.80
26635;BME280;14490;54.208;37.686;2023-04-15T01:44:25;100177.38;;;2.15;38.64
26635;BME280;14490;54.208;37.686;2023-04-15T01:46:52;100156.69;;;2.00;38.72
26635;BME280;14490;54.208;37.686;2023-04-15T01:49:20;100173.19;;;2.08;38.73
26635;BME280;14490;54.208;37.686;2023-04-15T01:51:47;100197.88;;;2.10;39.04
26635;BME280;14490;54.208;37.686;2023-04-15T01:54:15;100193.75;;;2.03;39.03
26635;BME280;14490;54.208;37.686;2023-04-15T01:56:42;100161.03;;;1.78;39.11
26635;BME280;14490;54.208;37.686;2023-04-15T01:59:09;100193.66;;;1.80;39.45
26635;BME280;14490;54.208;37.686;2023-04-15T02:01:38;100184.22;;;1.73;39.54
26635;BME280;14490;54.208;37.686;2023-04-15T02:04:06;100192.88;;;1.78;39.40
26635;BME280;14490;54.208;37.686;2023-04-15T02:06:41;100201.72;;;1.77;39.39
26635;BME280;14490;54.208;37.686;2023-04-15T02:09:09;100204.25;;;1.82;39.53
26635;BME280;14490;54.208;37.686;2023-04-15T02:11:36;100203.41;;;1.80;39.38
26635;BME280;14490;54.208;37.686;2023-04-15T02:14:04;100201.94;;;1.71;39.34
26635;BME280;14490;54.208;37.686;2023-04-15T02:16:31;100204.78;;;1.67;39.32
26635;BME280;14490;54.208;37.686;2023-04-15T02:19:01;100200.44;;;1.64;39.12
26635;BME280;14490;54.208;37.686;2023-04-15T02:21:29;100219.59;;;1.72;39.25
26635;BME280;14490;54.208;37.686;2023-04-15T02:23:56;100224.81;;;1.75;39.41
26635;BME280;14490;54.208;37.686;2023-04-15T02:26:24;100210.28;;;1.60;39.42
26635;BME280;14490;54.208;37.686;2023-04-15T02:28:51;100227.78;;;1.66;39.77
26635;BME280;14490;54.208;37.686;2023-04-15T02:31:19;100225.22;;;1.63;39.61
26635;BME280;14490;54.208;37.686;2023-04-15T02:33:46;100237.47;;;1.67;39.68
26635;BME280;14490;54.208;37.686;2023-04-15T02:36:15;100235.53;;;1.72;39.63
26635;BME280;14490;54.208;37.686;2023-04-15T02:38:43;100238.97;;;1.74;39.78
26635;BME280;14490;54.208;37.686;2023-04-15T02:41:10;100246.91;;;1.76;39.73
26635;BME280;14490;54.208;37.686;2023-04-15T02:43:38;100248.94;;;1.67;39.96
26635;BME280;14490;54.208;37.686;2023-04-15T02:46:06;100249.09;;;1.63;39.92
26635;BME280;14490;54.208;37.686;2023-04-15T02:48:33;100256.06;;;1.67;39.92
26635;BME280;14490;54.208;37.686;2023-04-15T02:51:15;100243.00;;;1.61;40.03
26635;BME280;14490;54.208;37.686;2023-04-15T02:53:44;100257.84;;;1.67;39.72
26635;BME280;14490;54.208;37.686;2023-04-15T02:56:11;100250.78;;;1.65;39.90
26635;BME280;14490;54.208;37.686;2023-04-15T02:58:40;100262.31;;;1.64;40.10
26635;BME280;14490;54.208;37.686;2023-04-15T03:01:08;100276.91;;;1.78;39.69
26635;BME280;14490;54.208;37.686;2023-04-15T03:03:35;100279.72;;;1.73;39.84
26635;BME280;14490;54.208;37.686;2023-04-15T03:06:03;100277.88;;;1.75;39.79
26635;BME280;14490;54.208;37.686;2023-04-15T03:08:31;100280.31;;;1.81;39.78
26635;BME280;14490;54.208;37.686;2023-04-15T03:10:59;100224.88;;;1.47;39.79
26635;BME280;14490;54.208;37.686;2023-04-15T03:13:27;100280.06;;;1.89;39.61
26635;BME280;14490;54.208;37.686;2023-04-15T03:15:54;100286.22;;;1.89;39.71
26635;BME280;14490;54.208;37.686;2023-04-15T03:18:22;100265.50;;;1.74;39.78
26635;BME280;14490;54.208;37.686;2023-04-15T03:20:49;100291.03;;;1.78;39.84
26635;BME280;14490;54.208;37.686;2023-04-15T03:23:16;100255.13;;;1.68;39.78
26635;BME280;14490;54.208;37.686;2023-04-15T03:25:45;100292.28;;;1.94;39.87
26635;BME280;14490;54.208;37.686;2023-04-15T03:28:13;100292.06;;;2.00;39.67
26635;BME280;14490;54.208;37.686;2023-04-15T03:30:40;100293.97;;;1.95;39.62
26635;BME280;14490;54.208;37.686;2023-04-15T03:33:07;100299.91;;;2.03;39.50
26635;BME280;14490;54.208;37.686;2023-04-15T03:35:35;100263.28;;;1.88;39.57
26635;BME280;14490;54.208;37.686;2023-04-15T03:38:02;100291.09;;;2.03;39.46
26635;BME280;14490;54.208;37.686;2023-04-15T03:40:30;100294.41;;;2.09;39.43
26635;BME280;14490;54.208;37.686;2023-04-15T03:42:59;100292.09;;;1.99;39.35
26635;BME280;14490;54.208;37.686;2023-04-15T03:45:26;100265.72;;;1.68;39.55
26635;BME280;14490;54.208;37.686;2023-04-15T03:47:53;100299.91;;;2.03;39.60
26635;BME280;14490;54.208;37.686;2023-04-15T03:50:21;100307.66;;;2.09;39.40
26635;BME280;14490;54.208;37.686;2023-04-15T03:52:49;100304.69;;;2.18;39.26
26635;BME280;14490;54.208;37.686;2023-04-15T03:55:16;100307.72;;;2.08;39.39
26635;BME280;14490;54.208;37.686;2023-04-15T03:57:44;100303.97;;;2.13;39.36
26635;BME280;14490;54.208;37.686;2023-04-15T04:00:13;100296.06;;;2.12;39.34
26635;BME280;14490;54.208;37.686;2023-04-15T04:02:41;100310.81;;;2.20;39.34
26635;BME280;14490;54.208;37.686;2023-04-15T04:05:10;100299.97;;;2.27;39.39
26635;BME280;14490;54.208;37.686;2023-04-15T04:07:37;100305.88;;;2.35;38.94
26635;BME280;14490;54.208;37.686;2023-04-15T04:10:06;100313.50;;;2.44;39.10
26635;BME280;14490;54.208;37.686;2023-04-15T04:12:34;100303.63;;;2.49;38.75
26635;BME280;14490;54.208;37.686;2023-04-15T04:15:01;100313.84;;;2.59;38.75
26635;BME280;14490;54.208;37.686;2023-04-15T04:17:30;100297.75;;;2.39;38.62
26635;BME280;14490;54.208;37.686;2023-04-15T04:19:57;100302.09;;;2.42;38.67
26635;BME280;14490;54.208;37.686;2023-04-15T04:22:25;100296.88;;;2.39;38.71
26635;BME280;14490;54.208;37.686;2023-04-15T04:24:55;100319.44;;;2.52;38.67
26635;BME280;14490;54.208;37.686;2023-04-15T04:27:24;100320.91;;;2.60;38.39
26635;BME280;14490;54.208;37.686;2023-04-15T04:29:51;100315.38;;;2.66;38.34
26635;BME280;14490;54.208;37.686;2023-04-15T04:32:18;100323.97;;;2.73;38.24
26635;BME280;14490;54.208;37.686;2023-04-15T04:34:47;100324.09;;;2.70;38.34
26635;BME280;14490;54.208;37.686;2023-04-15T04:37:15;100326.91;;;2.65;38.26
26635;BME280;14490;54.208;37.686;2023-04-15T04:39:42;100322.00;;;2.55;38.04
26635;BME280;14490;54.208;37.686;2023-04-15T04:42:10;100324.31;;;2.64;38.10
26635;BME280;14490;54.208;37.686;2023-04-15T04:44:37;100320.50;;;2.71;38.29
26635;BME280;14490;54.208;37.686;2023-04-15T04:47:04;100305.25;;;2.76;38.03
26635;BME280;14490;54.208;37.686;2023-04-15T04:49:32;100312.44;;;2.97;37.96
26635;BME280;14490;54.208;37.686;2023-04-15T04:52:02;100339.81;;;3.22;37.74
26635;BME280;14490;54.208;37.686;2023-04-15T04:54:30;100326.03;;;3.13;37.54
26635;BME280;14490;54.208;37.686;2023-04-15T04:56:57;100322.25;;;3.18;37.58
26635;BME280;14490;54.208;37.686;2023-04-15T04:59:25;100325.44;;;3.28;37.34
26635;BME280;14490;54.208;37.686;2023-04-15T05:01:52;100324.63;;;3.48;37.50
26635;BME280;14490;54.208;37.686;2023-04-15T05:04:20;100304.06;;;3.29;36.91
26635;BME280;14490;54.208;37.686;2023-04-15T05:06:49;100313.00;;;3.50;37.02
26635;BME280;14490;54.208;37.686;2023-04-15T05:09:18;100314.75;;;3.73;37.26
26635;BME280;14490;54.208;37.686;2023-04-15T05:11:45;100313.50;;;3.60;36.99
26635;BME280;14490;54.208;37.686;2023-04-15T05:14:13;100311.13;;;3.74;37.02
26635;BME280;14490;54.208;37.686;2023-04-15T05:16:40;100303.34;;;3.69;36.76
26635;BME280;14490;54.208;37.686;2023-04-15T05:19:08;100320.59;;;3.81;36.38
26635;BME280;14490;54.208;37.686;2023-04-15T05:21:35;100297.59;;;3.37;35.93
26635;BME280;14490;54.208;37.686;2023-04-15T05:24:03;100318.56;;;3.66;36.39
26635;BME280;14490;54.208;37.686;2023-04-15T05:26:32;100325.50;;;3.70;35.83
26635;BME280;14490;54.208;37.686;2023-04-15T05:29:00;100306.78;;;3.93;35.92
26635;BME280;14490;54.208;37.686;2023-04-15T05:31:27;100318.03;;;4.21;35.67
26635;BME280;14490;54.208;37.686;2023-04-15T05:33:55;100326.16;;;4.38;35.44
26635;BME280;14490;54.208;37.686;2023-04-15T05:36:22;100328.69;;;4.21;35.25
26635;BME280;14490;54.208;37.686;2023-04-15T05:38:50;100324.31;;;4.40;35.28
26635;BME280;14490;54.208;37.686;2023-04-15T05:41:17;100327.63;;;4.46;35.44
26635;BME280;14490;54.208;37.686;2023-04-15T05:43:46;100328.56;;;4.65;35.25
26635;BME280;14490;54.208;37.686;2023-04-15T05:46:14;100337.53;;;4.82;34.89
26635;BME280;14490;54.208;37.686;2023-04-15T05:48:41;100335.09;;;4.96;34.99
26635;BME280;14490;54.208;37.686;2023-04-15T05:51:09;100336.06;;;5.14;34.99
26635;BME280;14490;54.208;37.686;2023-04-15T05:53:36;100339.59;;;4.76;34.67
26635;BME280;14490;54.208;37.686;2023-04-15T05:56:06;100345.59;;;4.81;35.04
26635;BME280;14490;54.208;37.686;2023-04-15T05:58:33;100314.25;;;4.86;34.52
26635;BME280;14490;54.208;37.686;2023-04-15T06:01:03;100341.03;;;5.03;34.46
26635;BME280;14490;54.208;37.686;2023-04-15T06:03:31;100323.63;;;4.56;34.40
26635;BME280;14490;54.208;37.686;2023-04-15T06:05:58;100353.59;;;4.81;34.43
26635;BME280;14490;54.208;37.686;2023-04-15T06:08:27;100352.66;;;4.82;35.07
26635;BME280;14490;54.208;37.686;2023-04-15T06:10:54;100303.00;;;4.59;34.60
26635;BME280;14490;54.208;37.686;2023-04-15T06:13:23;100309.94;;;4.23;34.64
26635;BME280;14490;54.208;37.686;2023-04-15T06:15:50;100328.28;;;4.10;35.48
26635;BME280;14490;54.208;37.686;2023-04-15T06:18:20;100318.97;;;4.40;36.39
26635;BME280;14490;54.208;37.686;2023-04-15T06:20:48;100366.00;;;5.39;36.84
26635;BME280;14490;54.208;37.686;2023-04-15T06:23:17;100359.13;;;5.90;36.88
26635;BME280;14490;54.208;37.686;2023-04-15T06:25:46;100360.22;;;5.67;35.69
26635;BME280;14490;54.208;37.686;2023-04-15T06:28:15;100340.72;;;5.84;35.89
26635;BME280;14490;54.208;37.686;2023-04-15T06:30:44;100308.88;;;5.43;34.95
26635;BME280;14490;54.208;37.686;2023-04-15T06:33:13;100357.75;;;5.81;35.26
26635;BME280;14490;54.208;37.686;2023-04-15T06:35:43;100285.59;;;5.83;36.65
26635;BME280;14490;54.208;37.686;2023-04-15T06:38:12;100334.00;;;6.47;36.46
26635;BME280;14490;54.208;37.686;2023-04-15T06:40:45;100339.25;;;6.48;35.48
26635;BME280;14490;54.208;37.686;2023-04-15T06:43:50;100369.16;;;6.56;34.72
26635;BME280;14490;54.208;37.686;2023-04-15T06:46:19;100372.66;;;5.31;33.93
26635;BME280;14490;54.208;37.686;2023-04-15T06:48:47;100379.25;;;5.04;34.76
26635;BME280;14490;54.208;37.686;2023-04-15T06:51:16;100391.31;;;4.72;34.53
26635;BME280;14490;54.208;37.686;2023-04-15T06:53:46;100383.31;;;4.31;34.53
26635;BME280;14490;54.208;37.686;2023-04-15T06:56:13;100378.25;;;4.25;34.91
26635;BME280;14490;54.208;37.686;2023-04-15T06:58:43;100384.06;;;4.75;35.19
26635;BME280;14490;54.208;37.686;2023-04-15T07:01:12;100291.66;;;4.56;35.10
26635;BME280;14490;54.208;37.686;2023-04-15T07:03:40;100338.13;;;4.89;34.54
26635;BME280;14490;54.208;37.686;2023-04-15T07:06:07;100352.38;;;4.88;34.56
26635;BME280;14490;54.208;37.686;2023-04-15T07:08:36;100370.66;;;4.97;34.79
26635;BME280;14490;54.208;37.686;2023-04-15T07:11:18;100321.47;;;4.64;34.78
26635;BME280;14490;54.208;37.686;2023-04-15T07:13:48;100361.59;;;4.61;34.90
26635;BME280;14490;54.208;37.686;2023-04-15T07:20:14;100386.44;;;5.40;34.80
26635;BME280;14490;54.208;37.686;2023-04-15T07:22:52;100272.88;;;5.33;34.56
26635;BME280;14490;54.208;37.686;2023-04-15T07:25:44;100375.16;;;5.90;33.59
26635;BME280;14490;54.208;37.686;2023-04-15T07:28:13;100266.63;;;5.34;33.85
26635;BME280;14490;54.208;37.686;2023-04-15T07:30:44;100349.47;;;5.69;33.77
26635;BME280;14490;54.208;37.686;2023-04-15T07:33:17;100370.16;;;6.20;33.54
26635;BME280;14490;54.208;37.686;2023-04-15T07:35:48;100378.44;;;6.49;33.43
26635;BME280;14490;54.208;37.686;2023-04-15T07:38:16;100374.81;;;6.50;32.88
26635;BME280;14490;54.208;37.686;2023-04-15T07:40:45;100384.97;;;6.08;32.46
26635;BME280;14490;54.208;37.686;2023-04-15T07:43:12;100340.03;;;5.62;32.43
26635;BME280;14490;54.208;37.686;2023-04-15T07:45:40;100372.25;;;6.30;32.99
26635;BME280;14490;54.208;37.686;2023-04-15T07:48:07;100365.03;;;6.32;33.08
26635;BME280;14490;54.208;37.686;2023-04-15T07:50:36;100342.81;;;5.96;32.56
26635;BME280;14490;54.208;37.686;2023-04-15T07:53:03;100378.94;;;6.22;32.58
26635;BME280;14490;54.208;37.686;2023-04-15T07:55:31;100371.09;;;6.36;32.96
26635;BME280;14490;54.208;37.686;2023-04-15T07:58:00;100363.81;;;6.03;32.32
26635;BME280;14490;54.208;37.686;2023-04-15T08:00:28;100384.34;;;6.20;32.08
26635;BME280;14490;54.208;37.686;2023-04-15T08:02:55;100374.00;;;6.31;32.08
26635;BME280;14490;54.208;37.686;2023-04-15T08:05:24;100359.47;;;6.71;32.30
26635;BME280;14490;54.208;37.686;2023-04-15T08:07:51;100345.13;;;6.89;32.15
26635;BME280;14490;54.208;37.686;2023-04-15T08:10:19;100357.97;;;6.31;31.73
26635;BME280;14490;54.208;37.686;2023-04-15T08:12:50;100383.09;;;6.27;31.57
26635;BME280;14490;54.208;37.686;2023-04-15T08:15:22;100309.28;;;6.42;32.08
26635;BME280;14490;54.208;37.686;2023-04-15T08:17:51;100346.31;;;6.84;31.67
26635;BME280;14490;54.208;37.686;2023-04-15T08:20:21;100387.78;;;7.25;31.99
26635;BME280;14490;54.208;37.686;2023-04-15T08:22:48;100386.69;;;7.29;31.18
26635;BME280;14490;54.208;37.686;2023-04-15T08:25:18;100393.19;;;6.39;30.86
26635;BME280;14490;54.208;37.686;2023-04-15T08:27:54;100328.22;;;6.03;31.03
26635;BME280;14490;54.208;37.686;2023-04-15T08:30:27;100375.50;;;6.71;31.60
26635;BME280;14490;54.208;37.686;2023-04-15T08:32:54;100382.81;;;7.18;31.69
26635;BME280;14490;54.208;37.686;2023-04-15T08:35:22;100375.97;;;7.29;31.33
26635;BME280;14490;54.208;37.686;2023-04-15T08:37:49;100296.81;;;6.75;31.56
26635;BME280;14490;54.208;37.686;2023-04-15T08:40:17;100378.50;;;7.15;31.10
26635;BME280;14490;54.208;37.686;2023-04-15T08:42:48;100364.72;;;6.73;30.79
26635;BME280;14490;54.208;37.686;2023-04-15T08:45:19;100301.91;;;5.95;30.50
26635;BME280;14490;54.208;37.686;2023-04-15T08:48:14;100374.97;;;6.47;30.81
26635;BME280;14490;54.208;37.686;2023-04-15T08:50:44;100368.97;;;6.77;30.72
26635;BME280;14490;54.208;37.686;2023-04-15T08:53:13;100374.72;;;7.19;31.03
26635;BME280;14490;54.208;37.686;2023-04-15T08:55:44;100361.66;;;7.61;30.62
26635;BME280;14490;54.208;37.686;2023-04-15T08:58:14;100326.78;;;7.14;29.97
26635;BME280;14490;54.208;37.686;2023-04-15T09:00:42;100371.72;;;6.75;30.05
26635;BME280;14490;54.208;37.686;2023-04-15T09:03:11;100362.13;;;6.71;30.26
26635;BME280;14490;54.208;37.686;2023-04-15T09:05:39;100371.47;;;6.97;30.54
26635;BME280;14490;54.208;37.686;2023-04-15T09:08:06;100382.88;;;7.33;30.46
26635;BME280;14490;54.208;37.686;2023-04-15T09:10:34;100361.16;;;7.70;30.18
26635;BME280;14490;54.208;37.686;2023-04-15T09:13:02;100376.34;;;7.70;30.01
26635;BME280;14490;54.208;37.686;2023-04-15T09:15:31;100381.66;;;7.87;30.27
26635;BME280;14490;54.208;37.686;2023-04-15T09:17:59;100368.63;;;7.48;29.67
26635;BME280;14490;54.208;37.686;2023-04-15T09:20:28;100364.41;;;7.76;29.71
26635;BME280;14490;54.208;37.686;2023-04-15T09:22:56;100349.19;;;8.07;29.91
26635;BME280;14490;54.208;37.686;2023-04-15T09:25:28;100376.88;;;8.08;29.36
26635;BME280;14490;54.208;37.686;2023-04-15T09:27:56;100353.88;;;7.41;29.53
26635;BME280;14490;54.208;37.686;2023-04-15T09:30:27;100379.00;;;7.06;29.79
26635;BME280;14490;54.208;37.686;2023-04-15T09:32:56;100366.25;;;7.11;29.96
26635;BME280;14490;54.208;37.686;2023-04-15T09:35:28;100368.47;;;7.03;29.80
26635;BME280;14490;54.208;37.686;2023-04-15T09:38:01;100355.63;;;6.59;29.71
26635;BME280;14490;54.208;37.686;2023-04-15T09:40:34;100378.19;;;6.71;29.89
26635;BME280;14490;54.208;37.686;2023-04-15T09:43:05;100375.81;;;6.82;30.01
26635;BME280;14490;54.208;37.686;2023-04-15T09:45:34;100377.84;;;6.94;29.90
26635;BME280;14490;54.208;37.686;2023-04-15T09:48:15;100377.13;;;6.91;29.45
26635;BME280;14490;54.208;37.686;2023-04-15T09:50:47;100374.63;;;7.05;29.81
26635;BME280;14490;54.208;37.686;2023-04-15T09:53:19;100386.09;;;7.55;29.82
26635;BME280;14490;54.208;37.686;2023-04-15T09:55:49;100364.59;;;8.04;29.49
26635;BME280;14490;54.208;37.686;2023-04-15T09:58:17;100370.47;;;8.10;29.02
26635;BME280;14490;54.208;37.686;2023-04-15T10:00:47;100306.53;;;7.73;29.58
26635;BME280;14490;54.208;37.686;2023-04-15T10:03:24;100345.94;;;7.55;28.70
26635;BME280;14490;54.208;37.686;2023-04-15T10:05:55;100383.25;;;7.58;29.22
26635;BME280;14490;54.208;37.686;2023-04-15T10:08:24;100367.56;;;7.84;28.97
26635;BME280;14490;54.208;37.686;2023-04-15T10:10:53;100359.72;;;8.42;29.51
26635;BME280;14490;54.208;37.686;2023-04-15T10:13:22;100351.97;;;8.81;29.50
26635;BME280;14490;54.208;37.686;2023-04-15T10:15:55;100357.16;;;8.98;29.05
26635;BME280;14490;54.208;37.686;2023-04-15T10:18:25;100351.59;;;8.57;29.10
26635;BME280;14490;54.208;37.686;2023-04-15T10:20:55;100354.19;;;9.03;29.14
26635;BME280;14490;54.208;37.686;2023-04-15T10:23:22;100363.81;;;9.21;29.39
26635;BME280;14490;54.208;37.686;2023-04-15T10:25:51;100361.13;;;9.21;28.82
26635;BME280;14490;54.208;37.686;2023-04-15T10:28:20;100361.88;;;9.09;28.31
26635;BME280;14490;54.208;37.686;2023-04-15T10:30:48;100351.88;;;8.97;28.90
26635;BME280;14490;54.208;37.686;2023-04-15T10:33:18;100363.50;;;9.25;28.49
26635;BME280;14490;54.208;37.686;2023-04-15T10:35:48;100353.72;;;9.10;28.66
26635;BME280;14490;54.208;37.686;2023-04-15T10:38:39;100363.66;;;8.80;28.45
26635;BME280;14490;54.208;37.686;2023-04-15T10:41:15;100343.97;;;8.65;28.26
26635;BME280;14490;54.208;37.686;2023-04-15T10:43:48;100376.69;;;8.72;28.49
26635;BME280;14490;54.208;37.686;2023-04-15T10:46:24;100361.59;;;8.69;28.03
26635;BME280;14490;54.208;37.686;2023-04-15T10:49:07;100371.75;;;8.64;28.24
26635;BME280;14490;54.208;37.686;2023-04-15T10:51:37;100370.81;;;8.65;28.30
26635;BME280;14490;54.208;37.686;2023-04-15T10:54:13;100289.88;;;8.13;28.13
26635;BME280;14490;54.208;37.686;2023-04-15T10:56:44;100365.09;;;9.00;28.17
26635;BME280;14490;54.208;37.686;2023-04-15T10:59:15;100326.59;;;9.15;27.91
26635;BME280;14490;54.208;37.686;2023-04-15T11:01:51;100358.22;;;9.10;27.24
26635;BME280;14490;54.208;37.686;2023-04-15T11:04:51;100373.88;;;9.17;27.82
26635;BME280;14490;54.208;37.686;2023-04-15T11:07:33;100336.56;;;8.55;27.83
26635;BME280;14490;54.208;37.686;2023-04-15T11:10:12;100369.53;;;9.01;28.53
26635;BME280;14490;54.208;37.686;2023-04-15T11:13:17;100363.19;;;9.58;28.87
26635;BME280;14490;54.208;37.686;2023-04-15T11:16:01;100361.41;;;10.00;28.29
26635;BME280;14490;54.208;37.686;2023-04-15T11:18:52;100357.31;;;10.21;28.22
26635;BME280;14490;54.208;37.686;2023-04-15T11:22:05;100370.22;;;10.02;28.14
26635;BME280;14490;54.208;37.686;2023-04-15T11:24:49;100360.50;;;9.72;28.17
26635;BME280;14490;54.208;37.686;2023-04-15T11:27:23;100359.72;;;9.84;28.34
26635;BME280;14490;54.208;37.686;2023-04-15T11:29:53;100320.72;;;9.51;28.51
26635;BME280;14490;54.208;37.686;2023-04-15T11:32:26;100335.25;;;10.02;28.78
26635;BME280;14490;54.208;37.686;2023-04-15T11:34:54;100307.41;;;10.03;28.58
26635;BME280;14490;54.208;37.686;2023-04-15T11:37:28;100356.91;;;10.27;27.75
26635;BME280;14490;54.208;37.686;2023-04-15T11:40:01;100353.88;;;10.05;27.78
26635;BME280;14490;54.208;37.686;2023-04-15T11:42:36;100370.25;;;9.87;27.71
26635;BME280;14490;54.208;37.686;2023-04-15T11:45:07;100361.56;;;9.56;27.87
26635;BME280;14490;54.208;37.686;2023-04-15T11:47:35;100365.34;;;9.39;27.79
26635;BME280;14490;54.208;37.686;2023-04-15T11:50:13;100346.31;;;9.28;27.54
26635;BME280;14490;54.208;37.686;2023-04-15T11:52:54;100331.44;;;8.94;27.93
26635;BME280;14490;54.208;37.686;2023-04-15T11:55:26;100354.66;;;9.09;28.18
26635;BME280;14490;54.208;37.686;2023-04-15T11:58:23;100361.31;;;9.18;28.16
26635;BME280;14490;54.208;37.686;2023-04-15T12:00:55;100286.88;;;8.77;27.75
26635;BME280;14490;54.208;37.686;2023-04-15T12:03:50;100352.50;;;9.30;28.06
26635;BME280;14490;54.208;37.686;2023-04-15T12:06:22;100350.44;;;9.62;28.25
26635;BME280;14490;54.208;37.686;2023-04-15T12:08:56;100330.94;;;9.72;27.73
26635;BME280;14490;54.208;37.686;2023-04-15T12:11:34;100351.44;;;9.87;27.64
26635;BME280;14490;54.208;37.686;2023-04-15T12:14:10;100335.38;;;9.59;27.70
26635;BME280;14490;54.208;37.686;2023-04-15T12:16:48;100116.31;;;8.59;27.78
26635;BME280;14490;54.208;37.686;2023-04-15T12:19:28;100337.03;;;9.88;27.78
26635;BME280;14490;54.208;37.686;2023-04-15T12:21:58;100354.94;;;10.02;27.65
26635;BME280;14490;54.208;37.686;2023-04-15T12:24:26;100314.75;;;9.86;27.89
26635;BME280;14490;54.208;37.686;2023-04-15T12:27:13;100289.53;;;10.02;27.74
26635;BME280;14490;54.208;37.686;2023-04-15T12:30:08;100263.97;;;10.09;27.68
26635;BME280;14490;54.208;37.686;2023-04-15T12:32:53;100208.41;;;9.95;27.40
26635;BME280;14490;54.208;37.686;2023-04-15T12:35:22;100253.44;;;10.45;27.10
26635;BME280;14490;54.208;37.686;2023-04-15T12:40:46;100355.44;;;10.87;26.84
26635;BME280;14490;54.208;37.686;2023-04-15T12:43:13;100357.34;;;10.85;26.89
26635;BME280;14490;54.208;37.686;2023-04-15T12:45:42;100361.03;;;10.84;26.71
26635;BME280;14490;54.208;37.686;2023-04-15T12:48:10;100363.16;;;10.79;26.78
26635;BME280;14490;54.208;37.686;2023-04-15T12:50:37;100363.84;;;10.95;26.93
26635;BME280;14490;54.208;37.686;2023-04-15T12:53:05;100312.06;;;9.86;25.35
26635;BME280;14490;54.208;37.686;2023-04-15T12:55:36;100334.31;;;10.03;26.15
26635;BME280;14490;54.208;37.686;2023-04-15T12:58:08;100363.38;;;10.10;25.69
26635;BME280;14490;54.208;37.686;2023-04-15T13:00:36;100355.59;;;9.65;25.75
26635;BME280;14490;54.208;37.686;2023-04-15T13:03:07;100320.22;;;9.44;25.84
26635;BME280;14490;54.208;37.686;2023-04-15T13:05:34;100349.56;;;9.61;26.06
26635;BME280;14490;54.208;37.686;2023-04-15T13:08:05;100359.13;;;9.79;26.33
26635;BME280;14490;54.208;37.686;2023-04-15T13:10:33;100342.25;;;9.77;26.39
26635;BME280;14490;54.208;37.686;2023-04-15T13:13:02;100357.22;;;9.81;26.49